Time;durP1;ratioP1;P1;durP2;ratioP2;P2;SDS_P1;SDS_P2;PMS_P1;PMS_P2;Temp;Humidity;BMP_temperature;BMP_pressure;BME280_temperature;BME280_humidity;BME280_pressure;Samples;Min_cycle;Max_cycle;Signal;HPM_P1;HPM_P2
2023/09/27 00:00:11;;;;;;;7.13;5.50;;;14.40;99.90;;;;;;5039280;28;20222;-59
2023/09/27 00:02:42;;;;;;;5.80;4.47;;;14.30;99.90;;;;;;5042024;28;20305;-59
2023/09/27 00:05:11;;;;;;;7.30;5.00;;;14.30;99.90;;;;;;5022051;28;20230;-59
2023/09/27 00:07:41;;;;;;;6.20;5.07;;;14.30;99.90;;;;;;5048907;28;20686;-59
2023/09/27 00:10:11;;;;;;;6.77;5.07;;;14.30;99.90;;;;;;5044189;28;20557;-59
2023/09/27 00:12:40;;;;;;;6.80;4.90;;;14.30;99.90;;;;;;5046487;28;20224;-59
2023/09/27 00:15:11;;;;;;;8.73;5.40;;;14.30;99.90;;;;;;5043736;28;20225;-59
2023/09/27 00:17:44;;;;;;;5.07;4.67;;;14.30;99.90;;;;;;5040709;28;20266;-59
2023/09/27 00:20:15;;;;;;;5.67;5.00;;;14.20;99.90;;;;;;5051354;28;20257;-59
2023/09/27 00:22:45;;;;;;;5.83;5.23;;;14.20;99.90;;;;;;5044920;28;20573;-59
2023/09/27 00:25:14;;;;;;;8.23;5.27;;;14.20;99.90;;;;;;5045965;28;20184;-58
2023/09/27 00:27:43;;;;;;;5.90;5.20;;;14.30;99.90;;;;;;5046434;28;20198;-59
2023/09/27 00:30:14;;;;;;;12.13;6.10;;;14.30;99.90;;;;;;5039247;28;20524;-58
2023/09/27 00:32:45;;;;;;;9.63;6.00;;;14.30;99.90;;;;;;5042464;28;20290;-59
2023/09/27 00:35:19;;;;;;;6.77;6.03;;;14.40;99.90;;;;;;5040789;28;20229;-59
2023/09/27 00:37:48;;;;;;;8.93;6.13;;;14.30;99.90;;;;;;5032359;28;20226;-59
2023/09/27 00:40:18;;;;;;;9.87;5.90;;;14.30;99.90;;;;;;5041559;28;20200;-58
2023/09/27 00:42:48;;;;;;;6.60;6.00;;;14.30;99.90;;;;;;5040843;28;20286;-59
2023/09/27 00:45:18;;;;;;;6.17;5.57;;;14.20;99.90;;;;;;5036571;28;20332;-59
2023/09/27 00:47:50;;;;;;;6.97;5.77;;;14.20;99.90;;;;;;5040108;28;20224;-59
2023/09/27 00:50:19;;;;;;;5.67;5.10;;;14.20;99.90;;;;;;5042887;28;20231;-59
2023/09/27 00:52:48;;;;;;;5.87;5.37;;;14.10;99.90;;;;;;5045279;28;20320;-59
2023/09/27 00:55:20;;;;;;;6.67;5.90;;;14.00;99.90;;;;;;5040778;28;20558;-58
2023/09/27 00:57:49;;;;;;;7.30;5.63;;;14.00;99.90;;;;;;5044070;28;20201;-59
2023/09/27 01:00:19;;;;;;;8.83;5.53;;;13.90;99.90;;;;;;5050001;28;20217;-59
2023/09/27 01:02:49;;;;;;;8.90;5.67;;;13.90;99.90;;;;;;5051237;28;20230;-59
2023/09/27 01:05:18;;;;;;;5.67;5.17;;;13.90;99.90;;;;;;5046186;28;20224;-59
2023/09/27 01:07:48;;;;;;;7.40;5.37;;;14.00;99.90;;;;;;5043894;28;20309;-58
2023/09/27 01:10:16;;;;;;;8.50;5.63;;;13.90;99.90;;;;;;5044993;28;20256;-58
2023/09/27 01:12:45;;;;;;;8.47;5.30;;;13.90;99.90;;;;;;5052244;28;20284;-59
2023/09/27 01:15:13;;;;;;;9.63;5.70;;;13.90;99.90;;;;;;5044080;28;20217;-59
2023/09/27 01:17:55;;;;;;;6.33;5.70;;;13.80;99.90;;;;;;5052975;28;20237;-59
2023/09/27 01:20:23;;;;;;;7.47;5.07;;;13.80;99.90;;;;;;5041676;28;20309;-59
2023/09/27 01:22:58;;;;;;;5.73;5.17;;;13.70;99.90;;;;;;5049366;28;20288;-58
2023/09/27 01:25:29;;;;;;;6.27;5.67;;;13.70;99.90;;;;;;5047308;28;20194;-58
2023/09/27 01:27:58;;;;;;;5.87;4.93;;;13.60;99.90;;;;;;5045933;28;20221;-58
2023/09/27 01:30:32;;;;;;;8.17;5.33;;;13.60;99.90;;;;;;5046988;28;20251;-58
2023/09/27 01:33:04;;;;;;;7.73;5.40;;;13.60;99.90;;;;;;5044582;28;21680;-58
2023/09/27 01:35:33;;;;;;;8.47;5.23;;;13.60;99.90;;;;;;5046563;28;20222;-59
2023/09/27 01:38:07;;;;;;;8.83;5.03;;;13.50;99.90;;;;;;5045862;28;20225;-58
2023/09/27 01:40:38;;;;;;;9.03;5.50;;;13.50;99.90;;;;;;5045506;28;20293;-58
2023/09/27 01:43:08;;;;;;;6.20;5.30;;;13.50;99.90;;;;;;5047300;28;20222;-59
2023/09/27 01:45:37;;;;;;;5.47;4.97;;;13.50;99.90;;;;;;5047198;28;20218;-58
2023/09/27 01:48:06;;;;;;;6.33;5.63;;;13.40;99.90;;;;;;5044281;28;20596;-59
2023/09/27 01:50:35;;;;;;;7.80;5.37;;;13.40;99.90;;;;;;5042665;28;20278;-59
2023/09/27 01:53:05;;;;;;;7.13;5.50;;;13.40;99.90;;;;;;5042240;28;20235;-58
2023/09/27 01:55:34;;;;;;;6.57;5.10;;;13.40;99.90;;;;;;5047809;28;20739;-58
2023/09/27 01:58:03;;;;;;;6.67;5.70;;;13.30;99.90;;;;;;5061812;28;20862;-58
2023/09/27 02:00:31;;;;;;;9.23;5.43;;;13.40;99.90;;;;;;5046126;28;20218;-59
2023/09/27 02:03:01;;;;;;;5.90;5.30;;;13.40;99.90;;;;;;5042364;28;20577;-59
2023/09/27 02:05:31;;;;;;;6.13;5.53;;;13.40;99.90;;;;;;5042495;28;20219;-59
2023/09/27 02:08:00;;;;;;;9.67;5.43;;;13.40;99.90;;;;;;5044560;28;20236;-58
2023/09/27 02:10:29;;;;;;;4.80;4.40;;;13.30;99.90;;;;;;5045805;28;20260;-58
2023/09/27 02:12:58;;;;;;;7.50;4.97;;;13.30;99.90;;;;;;5045080;28;20675;-59
2023/09/27 02:15:26;;;;;;;7.73;5.30;;;13.30;99.90;;;;;;5048521;28;20743;-59
2023/09/27 02:17:55;;;;;;;6.93;5.23;;;13.20;99.90;;;;;;5043894;28;20291;-59
2023/09/27 02:20:25;;;;;;;10.40;5.70;;;13.20;99.90;;;;;;5048779;28;20253;-58
2023/09/27 02:22:55;;;;;;;6.13;5.53;;;13.20;99.90;;;;;;5042497;28;20231;-59
2023/09/27 02:25:25;;;;;;;7.70;5.50;;;13.20;99.90;;;;;;5040668;28;20193;-58
2023/09/27 02:27:55;;;;;;;11.57;6.07;;;13.20;99.90;;;;;;5045705;28;20193;-59
2023/09/27 02:30:23;;;;;;;6.50;5.10;;;13.20;99.90;;;;;;5062258;28;20255;-59
2023/09/27 02:32:52;;;;;;;8.90;5.23;;;13.20;99.90;;;;;;5037845;28;20226;-58
2023/09/27 02:35:21;;;;;;;9.23;5.60;;;13.30;99.90;;;;;;5033610;28;20222;-58
2023/09/27 02:37:50;;;;;;;6.97;5.87;;;13.30;99.90;;;;;;5046575;28;20229;-58
2023/09/27 02:40:18;;;;;;;6.47;5.90;;;13.30;99.90;;;;;;5042377;28;20202;-58
2023/09/27 02:42:48;;;;;;;8.30;6.17;;;13.30;99.90;;;;;;5044517;28;20202;-58
2023/09/27 02:45:18;;;;;;;6.47;5.93;;;13.30;99.90;;;;;;5054026;28;20258;-58
2023/09/27 02:47:47;;;;;;;14.03;6.57;;;13.30;99.90;;;;;;5043465;28;20312;-59
2023/09/27 02:50:16;;;;;;;7.00;6.30;;;13.30;99.90;;;;;;5041999;28;20229;-59
2023/09/27 02:52:44;;;;;;;7.67;6.33;;;13.30;99.90;;;;;;5042943;28;20229;-59
2023/09/27 02:55:13;;;;;;;7.93;6.13;;;13.20;99.90;;;;;;5037634;28;20684;-58
2023/09/27 02:57:48;;;;;;;9.07;6.40;;;13.20;99.90;;;;;;5043099;28;20201;-58
2023/09/27 03:00:26;;;;;;;8.90;6.10;;;13.10;99.90;;;;;;5042324;28;20225;-59
2023/09/27 03:02:56;;;;;;;8.13;5.87;;;13.10;99.90;;;;;;5035838;28;20221;-59
2023/09/27 03:05:24;;;;;;;7.00;6.40;;;13.10;99.90;;;;;;5045733;28;20253;-58
2023/09/27 03:07:53;;;;;;;10.13;6.13;;;13.10;99.90;;;;;;5042331;28;20222;-58
2023/09/27 03:10:21;;;;;;;6.97;5.90;;;13.10;99.90;;;;;;5035349;28;20332;-58
2023/09/27 03:12:51;;;;;;;11.10;6.53;;;13.10;99.90;;;;;;5042822;28;20195;-58
2023/09/27 03:15:19;;;;;;;9.37;6.00;;;13.10;99.90;;;;;;5043472;28;20247;-58
2023/09/27 03:17:49;;;;;;;7.40;5.77;;;13.10;99.90;;;;;;5062191;28;20308;-59
2023/09/27 03:20:19;;;;;;;7.37;6.17;;;13.10;99.90;;;;;;5061042;28;20675;-58
2023/09/27 03:22:48;;;;;;;8.07;6.57;;;13.10;99.90;;;;;;5063026;28;20686;-58
2023/09/27 03:25:17;;;;;;;7.40;6.67;;;13.00;99.90;;;;;;5067202;28;20194;-57
2023/09/27 03:27:49;;;;;;;8.40;6.20;;;13.10;99.90;;;;;;5063070;28;20242;-58
2023/09/27 03:30:18;;;;;;;10.37;6.50;;;13.10;99.90;;;;;;5062563;28;20225;-58
2023/09/27 03:32:47;;;;;;;8.00;6.90;;;13.20;99.90;;;;;;5059337;28;20233;-59
2023/09/27 03:35:17;;;;;;;11.87;6.70;;;13.20;99.90;;;;;;5065065;28;20212;-58
2023/09/27 03:37:46;;;;;;;8.83;6.73;;;13.20;99.90;;;;;;5067310;28;20711;-58
2023/09/27 03:40:15;;;;;;;7.47;6.73;;;13.20;99.90;;;;;;5062049;28;20541;-58
2023/09/27 03:42:45;;;;;;;7.53;6.67;;;13.20;99.90;;;;;;5067888;28;20192;-58
2023/09/27 03:45:14;;;;;;;16.30;7.03;;;13.20;99.90;;;;;;5064975;28;20217;-58
2023/09/27 03:47:45;;;;;;;10.77;7.23;;;13.20;99.90;;;;;;5063272;28;20552;-58
2023/09/27 03:50:14;;;;;;;8.53;6.30;;;13.30;99.90;;;;;;5067163;28;20220;-58
2023/09/27 03:52:45;;;;;;;10.50;6.30;;;13.20;99.90;;;;;;5066505;28;20274;-58
2023/09/27 03:55:13;;;;;;;12.30;7.13;;;13.20;99.90;;;;;;5066816;28;20251;-58
2023/09/27 03:57:42;;;;;;;12.90;6.50;;;13.20;99.90;;;;;;5065395;28;20773;-58
2023/09/27 04:00:13;;;;;;;8.57;6.27;;;13.20;99.90;;;;;;5078870;28;20233;-58
2023/09/27 04:02:43;;;;;;;10.63;6.80;;;13.30;99.90;;;;;;5068006;28;20220;-58
2023/09/27 04:05:11;;;;;;;12.23;6.83;;;13.40;99.90;;;;;;5078507;28;20235;-58
2023/09/27 04:07:40;;;;;;;12.63;7.17;;;13.30;99.90;;;;;;5059864;28;20621;-58
2023/09/27 04:10:11;;;;;;;9.00;7.77;;;13.40;99.90;;;;;;5050841;28;20201;-58
2023/09/27 04:12:40;;;;;;;11.03;7.47;;;13.40;99.90;;;;;;5045590;28;20618;-59
2023/09/27 04:15:09;;;;;;;12.93;7.33;;;13.40;99.90;;;;;;5059836;28;20253;-58
2023/09/27 04:17:40;;;;;;;11.93;7.53;;;13.50;99.90;;;;;;5064223;28;20718;-58
2023/09/27 04:20:14;;;;;;;8.43;7.20;;;13.40;99.90;;;;;;5065959;28;20651;-58
2023/09/27 04:22:44;;;;;;;8.83;7.93;;;13.50;99.90;;;;;;5058047;28;20651;-58
2023/09/27 04:25:15;;;;;;;11.27;8.37;;;13.40;99.90;;;;;;5044695;28;20198;-57
2023/09/27 04:27:45;;;;;;;9.43;8.07;;;13.40;99.90;;;;;;5060460;28;20581;-58
2023/09/27 04:30:15;;;;;;;12.57;8.60;;;13.40;99.90;;;;;;5046064;28;20222;-58
2023/09/27 04:32:45;;;;;;;12.60;9.60;;;13.40;99.90;;;;;;5045465;28;20336;-58
2023/09/27 04:35:14;;;;;;;10.93;8.90;;;13.40;99.90;;;;;;5046769;28;20702;-58
2023/09/27 04:37:43;;;;;;;11.77;9.00;;;13.40;99.90;;;;;;5047166;28;20828;-58
2023/09/27 04:40:13;;;;;;;12.43;8.40;;;13.30;99.90;;;;;;5049549;28;20182;-57
2023/09/27 04:42:44;;;;;;;13.13;8.33;;;13.30;99.90;;;;;;5047289;28;20283;-58
2023/09/27 04:45:14;;;;;;;9.63;8.57;;;13.30;99.90;;;;;;5042287;28;20332;-59
2023/09/27 04:47:44;;;;;;;12.03;9.10;;;13.30;99.90;;;;;;5047096;28;20278;-59
2023/09/27 04:50:15;;;;;;;12.43;8.43;;;13.30;99.90;;;;;;5045319;28;20232;-58
2023/09/27 04:52:43;;;;;;;14.37;9.23;;;13.20;99.90;;;;;;5045745;28;20228;-58
2023/09/27 04:55:13;;;;;;;11.23;9.43;;;13.10;99.90;;;;;;5048070;28;20194;-57
2023/09/27 04:57:43;;;;;;;12.87;8.87;;;13.30;99.90;;;;;;5045545;28;20210;-58
2023/09/27 05:00:18;;;;;;;13.53;9.13;;;13.30;99.90;;;;;;5065626;28;20225;-58
2023/09/27 05:02:48;;;;;;;12.43;9.97;;;13.30;99.90;;;;;;5065544;28;20223;-58
2023/09/27 05:05:17;;;;;;;12.30;9.50;;;13.40;99.90;;;;;;5070696;28;20242;-59
2023/09/27 05:07:45;;;;;;;13.10;9.73;;;13.50;99.90;;;;;;5066335;28;20220;-59
2023/09/27 05:10:14;;;;;;;14.33;10.70;;;13.40;99.90;;;;;;5071923;28;20262;-59
2023/09/27 05:12:44;;;;;;;17.73;10.33;;;13.40;99.90;;;;;;5069276;28;20283;-59
2023/09/27 05:15:12;;;;;;;15.00;10.57;;;13.40;99.90;;;;;;5068939;28;20214;-58
2023/09/27 05:17:41;;;;;;;12.50;10.73;;;13.40;99.90;;;;;;5071445;28;20236;-58
2023/09/27 05:20:10;;;;;;;14.93;11.40;;;13.40;99.90;;;;;;5068646;28;20665;-58
2023/09/27 05:22:41;;;;;;;18.63;10.97;;;13.40;99.90;;;;;;5062208;28;20294;-58
2023/09/27 05:25:10;;;;;;;13.87;10.80;;;13.40;99.90;;;;;;5071233;28;20196;-59
2023/09/27 05:27:39;;;;;;;15.23;10.47;;;13.40;99.90;;;;;;5069838;28;20315;-58
2023/09/27 05:30:11;;;;;;;15.27;11.33;;;13.40;99.90;;;;;;5062316;28;20212;-58
2023/09/27 05:32:41;;;;;;;14.93;11.07;;;13.40;99.90;;;;;;5066422;28;20245;-58
2023/09/27 05:35:10;;;;;;;13.47;10.60;;;13.30;99.90;;;;;;5063096;28;20255;-59
2023/09/27 05:37:42;;;;;;;15.13;11.30;;;13.30;99.90;;;;;;5072682;28;20232;-58
2023/09/27 05:40:11;;;;;;;16.83;12.00;;;13.30;99.90;;;;;;5066434;28;20189;-58
2023/09/27 05:42:40;;;;;;;18.03;11.77;;;13.40;99.90;;;;;;5047604;28;20224;-58
2023/09/27 05:45:11;;;;;;;14.80;11.47;;;13.30;99.90;;;;;;5051830;28;20216;-59
2023/09/27 05:47:41;;;;;;;15.87;11.80;;;13.30;99.90;;;;;;5049191;28;20223;-58
2023/09/27 05:50:12;;;;;;;15.03;11.63;;;13.30;99.90;;;;;;5050514;28;20233;-58
2023/09/27 05:52:44;;;;;;;16.33;11.57;;;13.30;99.90;;;;;;5050466;28;20232;-58
2023/09/27 05:55:14;;;;;;;17.30;11.03;;;13.30;99.90;;;;;;5049133;28;20201;-58
2023/09/27 05:57:43;;;;;;;17.87;11.03;;;13.30;99.90;;;;;;5050131;28;20259;-58
2023/09/27 06:00:22;;;;;;;16.97;11.30;;;13.30;99.90;;;;;;5053645;28;20714;-59
2023/09/27 06:02:53;;;;;;;19.33;11.43;;;13.30;99.90;;;;;;5048872;28;20238;-58
2023/09/27 06:05:22;;;;;;;19.47;11.23;;;13.30;99.90;;;;;;5044175;28;20214;-59
2023/09/27 06:07:52;;;;;;;26.10;12.10;;;13.30;99.90;;;;;;5046411;28;20245;-59
2023/09/27 06:10:21;;;;;;;20.83;11.23;;;13.40;99.90;;;;;;5046167;28;20225;-59
2023/09/27 06:12:49;;;;;;;22.00;11.97;;;13.40;99.90;;;;;;5065043;28;20228;-59
2023/09/27 06:15:20;;;;;;;15.23;10.23;;;13.50;99.90;;;;;;5047152;28;20223;-59
2023/09/27 06:17:48;;;;;;;12.33;10.07;;;13.50;99.90;;;;;;5052688;28;20229;-59
2023/09/27 06:20:22;;;;;;;10.47;9.40;;;13.60;99.90;;;;;;5049634;28;20221;-59
2023/09/27 06:22:52;;;;;;;16.90;10.60;;;13.50;99.90;;;;;;5043132;28;20240;-59
2023/09/27 06:25:23;;;;;;;12.37;9.87;;;13.60;99.90;;;;;;5051893;28;20197;-59
2023/09/27 06:27:52;;;;;;;17.80;10.03;;;13.60;99.90;;;;;;5048290;28;20210;-59
2023/09/27 06:30:22;;;;;;;16.80;10.03;;;13.70;99.90;;;;;;5071899;28;20221;-58
2023/09/27 06:32:50;;;;;;;15.00;9.40;;;13.60;99.90;;;;;;5045118;28;20250;-58
2023/09/27 06:35:19;;;;;;;12.37;9.33;;;13.60;99.90;;;;;;5057116;28;20286;-58
2023/09/27 06:37:49;;;;;;;11.17;8.60;;;13.60;99.90;;;;;;5068842;28;20260;-58
2023/09/27 06:40:22;;;;;;;9.97;8.93;;;13.70;99.90;;;;;;5064684;28;20613;-58
2023/09/27 06:42:50;;;;;;;12.93;8.83;;;13.70;99.90;;;;;;5068648;28;20197;-59
2023/09/27 06:45:19;;;;;;;14.03;9.57;;;13.80;99.90;;;;;;5067228;28;20223;-59
2023/09/27 06:47:48;;;;;;;13.07;9.03;;;14.00;99.90;;;;;;5062499;28;20235;-59
2023/09/27 06:50:18;;;;;;;12.53;8.80;;;14.10;99.90;;;;;;5079165;28;20318;-59
2023/09/27 06:52:47;;;;;;;10.57;8.50;;;14.20;99.90;;;;;;5066153;28;20252;-59
2023/09/27 06:55:18;;;;;;;11.63;8.47;;;14.30;99.90;;;;;;5063348;28;20219;-59
2023/09/27 06:57:49;;;;;;;13.97;8.43;;;14.30;99.90;;;;;;5064146;28;20211;-59
2023/09/27 07:00:19;;;;;;;11.33;8.27;;;14.50;99.90;;;;;;5062304;28;20318;-59
2023/09/27 07:02:49;;;;;;;15.47;8.33;;;14.70;99.90;;;;;;5062878;28;20217;-59
2023/09/27 07:05:21;;;;;;;9.13;8.17;;;14.90;99.90;;;;;;5061233;28;20250;-59
2023/09/27 07:07:49;;;;;;;10.33;7.50;;;15.10;99.90;;;;;;5063237;28;20696;-59
2023/09/27 07:10:18;;;;;;;11.57;8.13;;;15.20;99.90;;;;;;5067326;28;20285;-59
2023/09/27 07:12:47;;;;;;;8.70;7.77;;;15.40;99.90;;;;;;5050035;28;20228;-59
2023/09/27 07:15:15;;;;;;;14.37;7.47;;;15.50;99.90;;;;;;5063610;28;20695;-59
2023/09/27 07:17:44;;;;;;;15.73;8.10;;;15.60;99.90;;;;;;5048115;28;20258;-59
2023/09/27 07:20:24;;;;;;;8.93;7.23;;;15.70;99.90;;;;;;5067917;28;20288;-59
2023/09/27 07:22:54;;;;;;;12.97;8.37;;;15.70;99.90;;;;;;5063880;28;20306;-59
2023/09/27 07:25:23;;;;;;;12.60;8.07;;;15.80;99.90;;;;;;5064901;28;20213;-59
2023/09/27 07:27:52;;;;;;;9.90;7.93;;;16.10;99.90;;;;;;5066743;28;20696;-59
2023/09/27 07:30:23;;;;;;;8.17;7.37;;;16.30;99.90;;;;;;5067454;28;20212;-59
2023/09/27 07:32:53;;;;;;;9.85;7.57;;;16.40;99.90;;;;;;5059459;28;20441;-59
2023/09/27 07:35:27;;;;;;;7.83;7.03;;;16.60;99.90;;;;;;5063158;28;20703;-59
2023/09/27 07:37:56;;;;;;;8.20;7.07;;;16.80;99.90;;;;;;5062296;28;20227;-59
2023/09/27 07:40:24;;;;;;;7.40;6.77;;;16.90;99.90;;;;;;5066774;28;20189;-59
2023/09/27 07:42:52;;;;;;;9.07;7.50;;;17.00;99.90;;;;;;5065882;28;20198;-59
2023/09/27 07:45:22;;;;;;;13.77;7.90;;;17.10;99.90;;;;;;5062448;28;20216;-59
2023/09/27 07:47:51;;;;;;;11.67;7.43;;;17.20;99.90;;;;;;5058829;28;20220;-59
2023/09/27 07:50:21;;;;;;;13.73;7.27;;;17.30;99.90;;;;;;5061416;28;20227;-59
2023/09/27 07:52:51;;;;;;;7.87;7.07;;;17.40;99.90;;;;;;5048296;28;20231;-59
2023/09/27 07:55:21;;;;;;;10.43;7.13;;;17.50;99.90;;;;;;5058133;28;20197;-59
2023/09/27 07:57:52;;;;;;;10.00;6.83;;;17.60;99.90;;;;;;5062772;28;20212;-59
2023/09/27 08:00:27;;;;;;;7.00;6.30;;;17.60;99.90;;;;;;5062217;28;20211;-59
2023/09/27 08:02:57;;;;;;;9.83;6.90;;;17.60;99.90;;;;;;5062214;28;20250;-59
2023/09/27 08:05:26;;;;;;;7.47;6.60;;;17.60;99.90;;;;;;5063497;28;20346;-59
2023/09/27 08:07:56;;;;;;;10.33;6.20;;;17.60;99.90;;;;;;5063579;28;20686;-60
2023/09/27 08:10:24;;;;;;;8.37;5.40;;;17.50;99.90;;;;;;5071717;28;20188;-59
2023/09/27 08:12:53;;;;;;;7.80;5.70;;;17.50;99.90;;;;;;5072189;28;20206;-59
2023/09/27 08:15:21;;;;;;;10.07;6.97;;;17.50;99.90;;;;;;5048006;28;20674;-59
2023/09/27 08:17:50;;;;;;;6.63;6.00;;;17.50;99.90;;;;;;5064517;28;20227;-59
2023/09/27 08:20:18;;;;;;;9.47;6.80;;;17.50;99.90;;;;;;5067273;28;20292;-59
2023/09/27 08:22:48;;;;;;;12.00;6.07;;;17.50;99.90;;;;;;5067179;28;20320;-59
2023/09/27 08:25:18;;;;;;;9.10;6.50;;;17.50;99.90;;;;;;5068686;28;20196;-59
2023/09/27 08:27:50;;;;;;;7.97;5.80;;;17.50;99.90;;;;;;5067649;28;20270;-60
2023/09/27 08:30:19;;;;;;;9.63;5.43;;;17.50;99.90;;;;;;5067043;28;20222;-59
2023/09/27 08:32:48;;;;;;;8.33;5.70;;;17.50;99.90;;;;;;5067562;28;20584;-60
2023/09/27 08:35:17;;;;;;;13.70;6.27;;;17.60;99.90;;;;;;5065545;28;20212;-59
2023/09/27 08:37:45;;;;;;;7.77;5.53;;;17.70;99.90;;;;;;5067327;28;20231;-59
2023/09/27 08:40:15;;;;;;;11.07;6.17;;;17.70;99.90;;;;;;5068777;28;20187;-59
2023/09/27 08:42:49;;;;;;;17.00;7.13;;;18.00;99.90;;;;;;5066139;28;20634;-59
2023/09/27 08:45:23;;;;;;;9.83;6.80;;;18.10;99.90;;;;;;5070292;28;20216;-59
2023/09/27 08:47:52;;;;;;;6.60;6.00;;;18.10;99.90;;;;;;5064196;28;20215;-59
2023/09/27 08:50:21;;;;;;;8.57;6.40;;;18.20;99.90;;;;;;5066849;28;20594;-59
2023/09/27 08:52:50;;;;;;;9.50;6.33;;;18.40;99.90;;;;;;5067444;28;20228;-59
2023/09/27 08:55:20;;;;;;;10.03;6.27;;;18.50;99.90;;;;;;5068225;28;20223;-59
2023/09/27 08:57:51;;;;;;;9.07;6.33;;;18.60;99.90;;;;;;5066430;28;20610;-60
2023/09/27 09:00:26;;;;;;;9.97;6.33;;;18.70;99.90;;;;;;5066563;28;20240;-60
2023/09/27 09:02:57;;;;;;;9.87;6.73;;;18.80;99.90;;;;;;5070757;28;20227;-60
2023/09/27 09:05:28;;;;;;;7.53;5.50;;;18.80;99.90;;;;;;5065585;28;20941;-60
2023/09/27 09:08:00;;;;;;;7.27;5.90;;;18.90;99.90;;;;;;5067644;28;20208;-59
2023/09/27 09:10:28;;;;;;;6.30;5.43;;;19.00;99.90;;;;;;5068593;28;20190;-60
2023/09/27 09:13:00;;;;;;;6.93;6.13;;;19.00;99.90;;;;;;5061647;28;20195;-60
2023/09/27 09:15:35;;;;;;;7.57;6.00;;;19.10;99.90;;;;;;5067202;28;20219;-60
2023/09/27 09:18:11;;;;;;;6.20;5.63;;;19.00;99.90;;;;;;5066074;28;20231;-60
2023/09/27 09:20:51;;;;;;;8.80;5.13;;;19.10;99.90;;;;;;5066660;28;20215;-60
2023/09/27 09:23:31;;;;;;;5.97;5.37;;;19.10;99.90;;;;;;5067928;28;20215;-60
2023/09/27 09:25:59;;;;;;;10.93;6.30;;;19.20;99.90;;;;;;5065380;28;20649;-60
2023/09/27 09:28:29;;;;;;;7.23;6.47;;;19.30;99.90;;;;;;5065439;28;20675;-60
2023/09/27 09:30:58;;;;;;;7.13;6.13;;;19.50;99.90;;;;;;5065729;28;20192;-60
2023/09/27 09:33:28;;;;;;;10.50;6.30;;;19.80;99.90;;;;;;5064039;28;21544;-60
2023/09/27 09:35:57;;;;;;;9.07;6.30;;;20.00;99.90;;;;;;5066256;28;20220;-60
2023/09/27 09:38:29;;;;;;;8.87;5.93;;;20.20;99.90;;;;;;5063231;28;20277;-60
2023/09/27 09:40:59;;;;;;;12.37;6.43;;;20.30;99.90;;;;;;5067252;28;20218;-60
2023/09/27 09:43:33;;;;;;;6.90;6.20;;;20.40;99.90;;;;;;5062150;28;20180;-59
2023/09/27 09:46:03;;;;;;;9.37;6.87;;;20.50;99.90;;;;;;5062313;28;20227;-59
2023/09/27 09:48:33;;;;;;;7.43;6.10;;;20.60;99.90;;;;;;5063822;28;20269;-59
2023/09/27 09:51:07;;;;;;;13.10;6.20;;;20.70;99.90;;;;;;5065343;28;20266;-60
2023/09/27 09:53:39;;;;;;;10.33;6.40;;;20.80;99.90;;;;;;5066316;28;20230;-60
2023/09/27 09:56:10;;;;;;;7.00;5.90;;;21.00;99.90;;;;;;5066693;28;20228;-60
2023/09/27 09:58:48;;;;;;;8.90;5.07;;;21.00;99.90;;;;;;5063935;28;20724;-59
2023/09/27 10:01:21;;;;;;;7.90;5.90;;;21.00;99.90;;;;;;5060313;28;20204;-59
2023/09/27 10:03:52;;;;;;;7.33;5.70;;;21.10;99.90;;;;;;5068504;28;20187;-60
2023/09/27 10:06:22;;;;;;;6.73;5.50;;;21.00;99.90;;;;;;5066456;28;20266;-59
2023/09/27 10:09:13;;;;;;;12.00;6.30;;;21.00;99.90;;;;;;5062705;28;20627;-60
2023/09/27 10:11:46;;;;;;;8.93;6.13;;;21.00;99.90;;;;;;5063169;28;20642;-59
2023/09/27 10:14:18;;;;;;;9.37;5.40;;;20.90;99.90;;;;;;5069256;28;20274;-59
2023/09/27 10:16:50;;;;;;;9.77;5.20;;;20.90;99.90;;;;;;5068836;28;20758;-59
2023/09/27 10:19:29;;;;;;;8.67;4.87;;;20.90;99.90;;;;;;5069497;28;20210;-59
2023/09/27 10:22:05;;;;;;;8.93;4.97;;;21.10;99.90;;;;;;5063172;28;20185;-59
2023/09/27 10:24:35;;;;;;;8.20;4.63;;;21.10;99.90;;;;;;5066297;28;20239;-59
2023/09/27 10:27:04;;;;;;;11.37;4.70;;;21.10;99.90;;;;;;5050613;28;20229;-59
2023/09/27 10:29:57;;;;;;;7.93;4.90;;;21.30;99.90;;;;;;5064446;28;20228;-59
2023/09/27 10:32:28;;;;;;;4.87;4.13;;;21.60;99.90;;;;;;5063542;28;20220;-59
2023/09/27 10:34:56;;;;;;;6.57;4.70;;;21.60;99.90;;;;;;5065334;28;20221;-59
2023/09/27 10:37:59;;;;;;;5.20;4.70;;;21.60;99.90;;;;;;5062632;28;20268;-59
2023/09/27 10:40:27;;;;;;;7.77;4.43;;;21.50;99.90;;;;;;5006806;28;20214;-59
2023/09/27 10:42:56;;;;;;;6.37;4.17;;;21.40;99.90;;;;;;5050887;28;20918;-59
2023/09/27 10:45:26;;;;;;;6.83;4.50;;;21.40;99.90;;;;;;5063684;28;20220;-60
2023/09/27 10:47:56;;;;;;;7.97;4.90;;;21.30;99.90;;;;;;5052569;28;20566;-60
2023/09/27 10:50:29;;;;;;;14.67;5.00;;;21.40;99.90;;;;;;5061414;28;20579;-60
2023/09/27 10:53:00;;;;;;;7.23;4.40;;;21.40;99.90;;;;;;5058642;28;20225;-59
2023/09/27 10:55:38;;;;;;;5.00;4.50;;;21.50;99.90;;;;;;5058297;28;20242;-59
2023/09/27 10:58:07;;;;;;;6.97;4.90;;;21.50;99.90;;;;;;5045645;28;20542;-60
2023/09/27 11:00:51;;;;;;;6.63;4.83;;;21.60;99.90;;;;;;5064225;28;20234;-59
2023/09/27 11:03:19;;;;;;;14.53;5.53;;;21.60;99.90;;;;;;5065815;28;20221;-59
2023/09/27 11:05:48;;;;;;;5.70;4.67;;;21.60;99.90;;;;;;5061628;28;20304;-59
2023/09/27 11:08:22;;;;;;;6.13;4.90;;;21.70;99.90;;;;;;5062424;28;20858;-59
2023/09/27 11:10:52;;;;;;;7.47;4.80;;;22.10;99.90;;;;;;5062005;28;20245;-59
2023/09/27 11:13:21;;;;;;;5.70;4.40;;;22.60;99.90;;;;;;5068334;28;20252;-59
2023/09/27 11:15:51;;;;;;;5.23;4.50;;;23.00;99.90;;;;;;5066813;28;20221;-60
2023/09/27 11:18:20;;;;;;;8.50;4.67;;;23.40;99.90;;;;;;5041857;28;20851;-59
2023/09/27 11:20:49;;;;;;;4.50;3.97;;;23.70;99.90;;;;;;5056286;28;20257;-59
2023/09/27 11:23:19;;;;;;;4.73;4.17;;;23.90;99.90;;;;;;5069042;28;20274;-59
2023/09/27 11:25:49;;;;;;;4.20;3.80;;;24.10;99.90;;;;;;5061243;28;20246;-60
2023/09/27 11:28:18;;;;;;;6.73;4.47;;;24.10;99.90;;;;;;5065248;28;20211;-59
2023/09/27 11:30:56;;;;;;;4.20;3.80;;;23.90;99.90;;;;;;5065300;28;20657;-60
2023/09/27 11:33:31;;;;;;;5.17;3.63;;;23.70;99.90;;;;;;5066894;28;20309;-60
2023/09/27 11:36:05;;;;;;;5.20;3.90;;;23.80;99.90;;;;;;5066641;28;20215;-59
2023/09/27 11:38:33;;;;;;;5.57;4.00;;;23.90;99.90;;;;;;5066444;28;20219;-59
2023/09/27 11:41:07;;;;;;;5.80;3.80;;;24.00;99.90;;;;;;5066568;28;20223;-59
2023/09/27 11:43:36;;;;;;;5.30;3.30;;;24.10;99.90;;;;;;5067742;28;20250;-59
2023/09/27 11:46:04;;;;;;;5.87;3.77;;;24.40;99.90;;;;;;5064595;28;20199;-60
2023/09/27 11:48:35;;;;;;;3.40;3.10;;;24.80;99.90;;;;;;5060261;28;20302;-60
2023/09/27 11:51:04;;;;;;;5.40;3.57;;;24.80;99.90;;;;;;5068011;28;20239;-59
2023/09/27 11:53:32;;;;;;;6.27;3.80;;;24.70;99.90;;;;;;5068190;28;20303;-60
2023/09/27 11:56:01;;;;;;;8.37;3.70;;;24.40;99.90;;;;;;5063766;28;20228;-59
2023/09/27 11:58:29;;;;;;;14.27;3.80;;;24.30;99.90;;;;;;5051185;28;20311;-59
2023/09/27 12:00:58;;;;;;;4.10;3.47;;;24.20;99.90;;;;;;5068885;28;20212;-59
2023/09/27 12:03:28;;;;;;;4.70;2.90;;;24.30;99.90;;;;;;5061490;28;20234;-60
2023/09/27 12:05:58;;;;;;;3.30;3.00;;;24.30;99.90;;;;;;5049537;28;20220;-60
2023/09/27 12:08:27;;;;;;;5.47;3.37;;;24.40;99.90;;;;;;5044812;28;20212;-60
2023/09/27 12:10:56;;;;;;;3.90;3.60;;;24.40;99.90;;;;;;5057932;28;20243;-59
2023/09/27 12:13:24;;;;;;;5.23;3.50;;;24.50;99.90;;;;;;5043834;28;20252;-60
2023/09/27 12:15:53;;;;;;;5.70;3.07;;;24.50;99.90;;;;;;5061643;28;20196;-60
2023/09/27 12:18:21;;;;;;;5.53;3.37;;;24.50;99.90;;;;;;5061414;28;20231;-60
2023/09/27 12:20:50;;;;;;;4.13;3.23;;;24.70;99.90;;;;;;5061439;28;20941;-60
2023/09/27 12:23:20;;;;;;;4.33;3.20;;;24.80;99.90;;;;;;5065898;28;20706;-60
2023/09/27 12:25:50;;;;;;;5.33;3.20;;;24.70;99.90;;;;;;5059052;28;20277;-60
2023/09/27 12:28:18;;;;;;;4.70;3.30;;;24.50;99.90;;;;;;5064487;28;20227;-60
2023/09/27 12:30:47;;;;;;;5.70;3.60;;;24.50;99.90;;;;;;5068065;28;20189;-60
2023/09/27 12:33:15;;;;;;;4.43;3.20;;;24.70;99.90;;;;;;5063420;28;20217;-60
2023/09/27 12:35:46;;;;;;;3.73;3.50;;;24.80;99.90;;;;;;5065794;28;20220;-60
2023/09/27 12:38:15;;;;;;;3.23;2.93;;;24.80;99.90;;;;;;5039376;28;20228;-61
2023/09/27 12:40:45;;;;;;;7.10;3.50;;;24.70;99.90;;;;;;5066574;28;20706;-60
2023/09/27 12:43:13;;;;;;;4.00;3.53;;;24.90;99.90;;;;;;5064854;28;20202;-59
2023/09/27 12:45:42;;;;;;;4.77;3.37;;;24.90;99.90;;;;;;5060643;28;20216;-60
2023/09/27 12:48:10;;;;;;;5.60;3.50;;;24.90;99.90;;;;;;5043188;28;21236;-60
2023/09/27 12:50:42;;;;;;;6.57;3.60;;;25.00;99.90;;;;;;5040905;28;20210;-59
2023/09/27 12:53:10;;;;;;;7.13;3.60;;;25.10;99.90;;;;;;5053137;28;20248;-59
2023/09/27 12:55:43;;;;;;;3.13;2.90;;;25.20;99.90;;;;;;5074099;28;20224;-60
2023/09/27 12:58:14;;;;;;;3.17;2.57;;;25.20;99.90;;;;;;5068508;28;20216;-59